KSWFKALB

Guest
Details From KSWF - Stewart Intl
To KALB - Albany Intl
Flight Number -
Tags Routegen
Created
Modified
Stats Distance 76 nm / 140 km
Max Altitude 0 ft / 0 m
Waypoints 2
Social Downloads 0
Likes 0
Share VATSIM

Download

Looking for another format? Having issues loading an existing format? Contact us
Advertisement - Login to hide

Notes

None

Route

KSWF KALB

ID Type Via Altitude Latitude Longitude Leg Dist Tot Dist Heading (true) Name
O KSWF APT - 0 ft / 0 m 41.50084˚ -74.13055˚ - 0 nm - -
O KALB APT - 0 ft / 0 m 42.73717˚ -73.80425˚ 75 nm 75 nm 11° / 11° -

Altitude Profile

Advertisement - Login to hide

KSWF

Details ICAO KSWF (SWF)
Name Stewart
Region United States
Timezone America/New_York (UTC-5.0)
Stats Elevation 491 ft / 150 m (AMSL)
Location 41.504047° -74.102572°
Runways 2
Magnetic Variation 13.040° W

METAR

KSWF 150345Z 00000KT 10SM SKC M09/M14 A3008

Decode

TAF

KSWF 150239Z 1503/1606 27005KT P6SM FEW230 FM151100 24003KT P6SM BKN180 FM151700 22005KT P6SM SCT040 BKN090 FM160500 24004KT P6SM SCT080 AMD NOT SKED

Decode

Departure Runways

ID Width Length Bearing (true) Bearing (mag) Surface Threshold Offset Overrun Length
09 151 ft / 46 m 11,895 ft / 3,626 m 78.31° 91.35° Asphalt 2,001 ft / 610 m 200 ft / 61 m
16 151 ft / 46 m 6,014 ft / 1,833 m 149.70° 162.74° Asphalt 0 ft / 0 m 200 ft / 61 m
27 151 ft / 46 m 11,895 ft / 3,626 m 258.34° 271.38° Asphalt 2,001 ft / 610 m 200 ft / 61 m
34 151 ft / 46 m 6,014 ft / 1,833 m 329.71° 342.75° Asphalt 0 ft / 0 m 200 ft / 61 m

KALB

Details ICAO KALB (ALB)
Name ALBANY INTL
Region United States
Timezone America/New_York (UTC-5.0)
Stats Elevation 285 ft / 87 m (AMSL)
Location 42.749357° -73.801728°
Runways 2
Magnetic Variation 13.510° W

METAR

KALB 150351Z 24003KT 10SM FEW031 BKN041 M09/M16 A3006 RMK AO2 SLP184 T10941156

Decode

TAF

TAF AMD KALB 150332Z 1504/1524 23004KT P6SM BKN035 BKN045 FM150600 22003KT P6SM SCT035 BKN045 FM151100 20004KT P6SM FEW045 SCT250 FM152000 19005KT P6SM SCT045 BKN120

Decode

Destination Runways

ID Width Length Bearing (true) Bearing (mag) Surface Threshold Offset Overrun Length
01 150 ft / 46 m 8,509 ft / 2,593 m 358.17° 11.68° Asphalt 151 ft / 46 m 200 ft / 61 m
10 150 ft / 46 m 7,180 ft / 2,189 m 88.01° 101.52° Asphalt 249 ft / 76 m 0 ft / 0 m
19 150 ft / 46 m 8,509 ft / 2,593 m 178.17° 191.68° Asphalt 151 ft / 46 m 200 ft / 61 m
28 150 ft / 46 m 7,180 ft / 2,189 m 268.03° 281.54° Asphalt 200 ft / 61 m 0 ft / 0 m

Approach Navaids

Runway Type Ident Frequency Range Bearing (true) Bearing (mag) Slope Elevation
01 Localiser IDEJ 109.50 MHz 18 nm / 33 km 358.17° 11.68° - 285 ft / 87 m (AMSL)
01 Glidescope IDEJ 109.50 MHz 10 nm / 19 km 358.17° 11.68° 3.00° 279 ft / 85 m (AMSL)
19 Localiser IALB 109.50 MHz 18 nm / 33 km 178.17° 191.68° - 285 ft / 87 m (AMSL)
19 Glidescope IALB 109.50 MHz 10 nm / 19 km 178.17° 191.68° 3.00° 279 ft / 85 m (AMSL)